sensor_id;sensor_type;location;lat;lon;timestamp;temperature;humidity
69731;SHT31;56996;48.138;11.538;2023-07-02T00:00:04;19.17;69.12
69731;SHT31;56996;48.138;11.538;2023-07-02T00:02:34;19.14;69.19
69731;SHT31;56996;48.138;11.538;2023-07-02T00:05:03;19.11;69.35
69731;SHT31;56996;48.138;11.538;2023-07-02T00:07:33;19.11;69.47
69731;SHT31;56996;48.138;11.538;2023-07-02T00:10:03;19.07;69.25
69731;SHT31;56996;48.138;11.538;2023-07-02T00:12:30;19.03;69.29
69731;SHT31;56996;48.138;11.538;2023-07-02T00:14:57;19.02;69.30
69731;SHT31;56996;48.138;11.538;2023-07-02T00:17:24;19.00;69.15
69731;SHT31;56996;48.138;11.538;2023-07-02T00:19:52;19.01;69.06
69731;SHT31;56996;48.138;11.538;2023-07-02T00:22:19;19.05;68.90
69731;SHT31;56996;48.138;11.538;2023-07-02T00:24:47;19.06;69.08
69731;SHT31;56996;48.138;11.538;2023-07-02T00:27:14;19.07;68.78
69731;SHT31;56996;48.138;11.538;2023-07-02T00:29:41;19.05;68.82
69731;SHT31;56996;48.138;11.538;2023-07-02T00:32:08;19.03;68.77
69731;SHT31;56996;48.138;11.538;2023-07-02T00:34:34;19.03;68.75
69731;SHT31;56996;48.138;11.538;2023-07-02T00:37:01;18.99;68.95
69731;SHT31;56996;48.138;11.538;2023-07-02T00:39:33;18.99;69.01
69731;SHT31;56996;48.138;11.538;2023-07-02T00:42:01;18.96;69.06
69731;SHT31;56996;48.138;11.538;2023-07-02T00:44:31;18.92;69.13
69731;SHT31;56996;48.138;11.538;2023-07-02T00:46:58;18.89;69.37
69731;SHT31;56996;48.138;11.538;2023-07-02T00:49:25;18.86;69.54
69731;SHT31;56996;48.138;11.538;2023-07-02T00:51:52;18.86;69.58
69731;SHT31;56996;48.138;11.538;2023-07-02T00:54:20;18.84;69.80
69731;SHT31;56996;48.138;11.538;2023-07-02T00:56:46;18.83;69.81
69731;SHT31;56996;48.138;11.538;2023-07-02T00:59:14;18.83;69.93
69731;SHT31;56996;48.138;11.538;2023-07-02T01:01:41;18.81;70.09
69731;SHT31;56996;48.138;11.538;2023-07-02T01:04:08;18.83;70.31
69731;SHT31;56996;48.138;11.538;2023-07-02T01:06:36;18.78;70.52
69731;SHT31;56996;48.138;11.538;2023-07-02T01:09:08;18.77;70.65
69731;SHT31;56996;48.138;11.538;2023-07-02T01:11:38;18.74;70.97
69731;SHT31;56996;48.138;11.538;2023-07-02T01:14:11;18.70;71.40
69731;SHT31;56996;48.138;11.538;2023-07-02T01:16:42;18.67;71.71
69731;SHT31;56996;48.138;11.538;2023-07-02T01:19:15;18.66;72.02
69731;SHT31;56996;48.138;11.538;2023-07-02T01:21:47;18.60;72.24
69731;SHT31;56996;48.138;11.538;2023-07-02T01:24:16;18.59;72.28
69731;SHT31;56996;48.138;11.538;2023-07-02T01:26:44;18.57;72.37
69731;SHT31;56996;48.138;11.538;2023-07-02T01:29:15;18.55;72.34
69731;SHT31;56996;48.138;11.538;2023-07-02T01:31:44;18.53;72.43
69731;SHT31;56996;48.138;11.538;2023-07-02T01:34:12;18.51;72.48
69731;SHT31;56996;48.138;11.538;2023-07-02T01:36:40;18.52;72.59
69731;SHT31;56996;48.138;11.538;2023-07-02T01:39:07;18.52;72.61
69731;SHT31;56996;48.138;11.538;2023-07-02T01:41:51;18.52;72.67
69731;SHT31;56996;48.138;11.538;2023-07-02T01:44:21;18.51;72.68
69731;SHT31;56996;48.138;11.538;2023-07-02T01:46:48;18.49;72.82
69731;SHT31;56996;48.138;11.538;2023-07-02T01:49:16;18.46;72.92
69731;SHT31;56996;48.138;11.538;2023-07-02T01:51:45;18.48;72.90
69731;SHT31;56996;48.138;11.538;2023-07-02T01:54:15;18.49;72.94
69731;SHT31;56996;48.138;11.538;2023-07-02T01:56:42;18.49;72.97
69731;SHT31;56996;48.138;11.538;2023-07-02T01:59:09;18.45;72.97
69731;SHT31;56996;48.138;11.538;2023-07-02T02:01:36;18.43;73.14
69731;SHT31;56996;48.138;11.538;2023-07-02T02:04:07;18.36;73.30
69731;SHT31;56996;48.138;11.538;2023-07-02T02:06:38;18.33;73.31
69731;SHT31;56996;48.138;11.538;2023-07-02T02:09:05;18.32;73.34
69731;SHT31;56996;48.138;11.538;2023-07-02T02:11:33;18.29;73.41
69731;SHT31;56996;48.138;11.538;2023-07-02T02:14:05;18.26;73.57
69731;SHT31;56996;48.138;11.538;2023-07-02T02:16:32;18.21;73.63
69731;SHT31;56996;48.138;11.538;2023-07-02T02:19:03;18.18;73.75
69731;SHT31;56996;48.138;11.538;2023-07-02T02:21:31;18.16;73.88
69731;SHT31;56996;48.138;11.538;2023-07-02T02:23:57;18.14;73.91
69731;SHT31;56996;48.138;11.538;2023-07-02T02:26:26;18.15;73.89
69731;SHT31;56996;48.138;11.538;2023-07-02T02:28:52;18.13;74.04
69731;SHT31;56996;48.138;11.538;2023-07-02T02:31:19;18.15;74.02
69731;SHT31;56996;48.138;11.538;2023-07-02T02:33:46;18.15;74.07
69731;SHT31;56996;48.138;11.538;2023-07-02T02:36:13;18.19;74.09
69731;SHT31;56996;48.138;11.538;2023-07-02T02:38:40;18.23;73.92
69731;SHT31;56996;48.138;11.538;2023-07-02T02:41:07;18.25;73.89
69731;SHT31;56996;48.138;11.538;2023-07-02T02:43:40;18.27;73.86
69731;SHT31;56996;48.138;11.538;2023-07-02T02:46:12;18.27;73.84
69731;SHT31;56996;48.138;11.538;2023-07-02T02:48:49;18.30;73.80
69731;SHT31;56996;48.138;11.538;2023-07-02T02:51:18;18.30;73.69
69731;SHT31;56996;48.138;11.538;2023-07-02T02:53:44;18.28;73.77
69731;SHT31;56996;48.138;11.538;2023-07-02T02:56:13;18.25;73.72
69731;SHT31;56996;48.138;11.538;2023-07-02T02:58:40;18.27;73.72
69731;SHT31;56996;48.138;11.538;2023-07-02T03:01:07;18.27;73.69
69731;SHT31;56996;48.138;11.538;2023-07-02T03:03:41;18.29;73.67
69731;SHT31;56996;48.138;11.538;2023-07-02T03:06:14;18.30;73.63
69731;SHT31;56996;48.138;11.538;2023-07-02T03:08:42;18.31;73.67
69731;SHT31;56996;48.138;11.538;2023-07-02T03:11:09;18.33;73.82
69731;SHT31;56996;48.138;11.538;2023-07-02T03:13:36;18.34;73.88
69731;SHT31;56996;48.138;11.538;2023-07-02T03:16:02;18.36;73.94
69731;SHT31;56996;48.138;11.538;2023-07-02T03:18:29;18.37;74.00
69731;SHT31;56996;48.138;11.538;2023-07-02T03:20:56;18.38;74.41
69731;SHT31;56996;48.138;11.538;2023-07-02T03:23:23;18.32;74.05
69731;SHT31;56996;48.138;11.538;2023-07-02T03:25:49;18.09;70.37
69731;SHT31;56996;48.138;11.538;2023-07-02T03:28:16;17.83;69.32
69731;SHT31;56996;48.138;11.538;2023-07-02T03:30:43;17.64;69.57
69731;SHT31;56996;48.138;11.538;2023-07-02T03:33:10;17.56;70.25
69731;SHT31;56996;48.138;11.538;2023-07-02T03:35:36;17.50;70.40
69731;SHT31;56996;48.138;11.538;2023-07-02T03:38:04;17.50;70.61
69731;SHT31;56996;48.138;11.538;2023-07-02T03:40:32;17.48;70.36
69731;SHT31;56996;48.138;11.538;2023-07-02T03:42:59;17.45;70.53
69731;SHT31;56996;48.138;11.538;2023-07-02T03:45:25;17.38;70.75
69731;SHT31;56996;48.138;11.538;2023-07-02T03:47:52;17.24;70.63
69731;SHT31;56996;48.138;11.538;2023-07-02T03:50:19;17.08;70.70
69731;SHT31;56996;48.138;11.538;2023-07-02T03:52:46;16.97;71.03
69731;SHT31;56996;48.138;11.538;2023-07-02T03:55:13;16.94;71.60
69731;SHT31;56996;48.138;11.538;2023-07-02T03:57:39;16.93;72.43
69731;SHT31;56996;48.138;11.538;2023-07-02T04:00:06;16.97;73.00
69731;SHT31;56996;48.138;11.538;2023-07-02T04:02:40;16.93;72.53
69731;SHT31;56996;48.138;11.538;2023-07-02T04:05:07;16.91;72.08
69731;SHT31;56996;48.138;11.538;2023-07-02T04:07:34;16.89;72.12
69731;SHT31;56996;48.138;11.538;2023-07-02T04:10:01;16.84;72.73
69731;SHT31;56996;48.138;11.538;2023-07-02T04:12:27;16.82;73.47
69731;SHT31;56996;48.138;11.538;2023-07-02T04:14:54;16.87;73.25
69731;SHT31;56996;48.138;11.538;2023-07-02T04:17:21;16.85;72.97
69731;SHT31;56996;48.138;11.538;2023-07-02T04:19:47;16.85;73.49
69731;SHT31;56996;48.138;11.538;2023-07-02T04:22:15;16.86;73.46
69731;SHT31;56996;48.138;11.538;2023-07-02T04:24:41;16.84;73.38
69731;SHT31;56996;48.138;11.538;2023-07-02T04:27:12;16.85;73.41
69731;SHT31;56996;48.138;11.538;2023-07-02T04:29:59;16.82;73.65
69731;SHT31;56996;48.138;11.538;2023-07-02T04:32:26;16.80;73.61
69731;SHT31;56996;48.138;11.538;2023-07-02T04:34:53;16.77;73.66
69731;SHT31;56996;48.138;11.538;2023-07-02T04:37:19;16.74;74.28
69731;SHT31;56996;48.138;11.538;2023-07-02T04:39:48;16.75;74.05
69731;SHT31;56996;48.138;11.538;2023-07-02T04:42:15;16.75;73.80
69731;SHT31;56996;48.138;11.538;2023-07-02T04:44:42;16.76;73.85
69731;SHT31;56996;48.138;11.538;2023-07-02T04:47:10;16.75;73.62
69731;SHT31;56996;48.138;11.538;2023-07-02T04:49:37;16.75;73.87
69731;SHT31;56996;48.138;11.538;2023-07-02T04:52:05;16.73;73.78
69731;SHT31;56996;48.138;11.538;2023-07-02T04:54:32;16.71;73.76
69731;SHT31;56996;48.138;11.538;2023-07-02T04:56:59;16.69;73.98
69731;SHT31;56996;48.138;11.538;2023-07-02T04:59:25;16.73;74.41
69731;SHT31;56996;48.138;11.538;2023-07-02T05:01:52;16.77;74.17
69731;SHT31;56996;48.138;11.538;2023-07-02T05:04:19;16.80;74.27
69731;SHT31;56996;48.138;11.538;2023-07-02T05:06:46;16.81;74.33
69731;SHT31;56996;48.138;11.538;2023-07-02T05:09:12;16.86;74.05
69731;SHT31;56996;48.138;11.538;2023-07-02T05:11:39;16.87;74.21
69731;SHT31;56996;48.138;11.538;2023-07-02T05:14:06;16.90;73.69
69731;SHT31;56996;48.138;11.538;2023-07-02T05:16:33;16.90;73.57
69731;SHT31;56996;48.138;11.538;2023-07-02T05:18:59;16.92;73.82
69731;SHT31;56996;48.138;11.538;2023-07-02T05:21:26;16.97;74.02
69731;SHT31;56996;48.138;11.538;2023-07-02T05:23:53;16.99;73.86
69731;SHT31;56996;48.138;11.538;2023-07-02T05:26:19;17.02;73.78
69731;SHT31;56996;48.138;11.538;2023-07-02T05:28:46;17.05;73.93
69731;SHT31;56996;48.138;11.538;2023-07-02T05:31:14;17.10;73.90
69731;SHT31;56996;48.138;11.538;2023-07-02T05:33:41;17.15;73.67
69731;SHT31;56996;48.138;11.538;2023-07-02T05:36:08;17.20;73.51
69731;SHT31;56996;48.138;11.538;2023-07-02T05:38:34;17.27;73.21
69731;SHT31;56996;48.138;11.538;2023-07-02T05:41:02;17.31;73.28
69731;SHT31;56996;48.138;11.538;2023-07-02T05:43:30;17.39;73.35
69731;SHT31;56996;48.138;11.538;2023-07-02T05:45:59;17.43;73.10
69731;SHT31;56996;48.138;11.538;2023-07-02T05:48:29;17.50;73.21
69731;SHT31;56996;48.138;11.538;2023-07-02T05:50:55;17.57;72.92
69731;SHT31;56996;48.138;11.538;2023-07-02T05:53:22;17.65;72.69
69731;SHT31;56996;48.138;11.538;2023-07-02T05:55:48;17.69;72.53
69731;SHT31;56996;48.138;11.538;2023-07-02T05:58:15;17.71;72.41
69731;SHT31;56996;48.138;11.538;2023-07-02T06:00:42;17.70;72.16
69731;SHT31;56996;48.138;11.538;2023-07-02T06:03:16;17.72;72.05
69731;SHT31;56996;48.138;11.538;2023-07-02T06:05:46;17.71;71.96
69731;SHT31;56996;48.138;11.538;2023-07-02T06:08:16;17.71;71.72
69731;SHT31;56996;48.138;11.538;2023-07-02T06:10:47;17.72;71.75
69731;SHT31;56996;48.138;11.538;2023-07-02T06:13:15;17.74;71.86
69731;SHT31;56996;48.138;11.538;2023-07-02T06:15:43;17.72;71.74
69731;SHT31;56996;48.138;11.538;2023-07-02T06:18:10;17.75;71.71
69731;SHT31;56996;48.138;11.538;2023-07-02T06:20:37;17.74;71.51
69731;SHT31;56996;48.138;11.538;2023-07-02T06:23:04;17.70;71.39
69731;SHT31;56996;48.138;11.538;2023-07-02T06:25:30;17.69;71.49
69731;SHT31;56996;48.138;11.538;2023-07-02T06:27:58;17.66;71.35
69731;SHT31;56996;48.138;11.538;2023-07-02T06:30:26;17.63;71.52
69731;SHT31;56996;48.138;11.538;2023-07-02T06:32:53;17.58;71.23
69731;SHT31;56996;48.138;11.538;2023-07-02T06:35:21;17.57;71.31
69731;SHT31;56996;48.138;11.538;2023-07-02T06:37:48;17.58;71.52
69731;SHT31;56996;48.138;11.538;2023-07-02T06:40:15;17.56;71.98
69731;SHT31;56996;48.138;11.538;2023-07-02T06:42:41;17.60;72.23
69731;SHT31;56996;48.138;11.538;2023-07-02T06:45:08;17.63;72.33
69731;SHT31;56996;48.138;11.538;2023-07-02T06:47:35;17.64;73.04
69731;SHT31;56996;48.138;11.538;2023-07-02T06:50:02;17.59;72.86
69731;SHT31;56996;48.138;11.538;2023-07-02T06:52:28;17.57;72.98
69731;SHT31;56996;48.138;11.538;2023-07-02T06:54:55;17.61;72.85
69731;SHT31;56996;48.138;11.538;2023-07-02T06:57:22;17.65;73.00
69731;SHT31;56996;48.138;11.538;2023-07-02T06:59:49;17.62;73.20
69731;SHT31;56996;48.138;11.538;2023-07-02T07:02:16;17.64;73.32
69731;SHT31;56996;48.138;11.538;2023-07-02T07:04:43;17.68;73.75
69731;SHT31;56996;48.138;11.538;2023-07-02T07:07:10;17.66;73.59
69731;SHT31;56996;48.138;11.538;2023-07-02T07:09:36;17.60;73.76
69731;SHT31;56996;48.138;11.538;2023-07-02T07:12:03;17.46;73.61
69731;SHT31;56996;48.138;11.538;2023-07-02T07:14:30;17.42;74.19
69731;SHT31;56996;48.138;11.538;2023-07-02T07:16:57;17.39;74.63
69731;SHT31;56996;48.138;11.538;2023-07-02T07:19:24;17.42;74.46
69731;SHT31;56996;48.138;11.538;2023-07-02T07:21:50;17.38;74.17
69731;SHT31;56996;48.138;11.538;2023-07-02T07:24:17;17.30;74.34
69731;SHT31;56996;48.138;11.538;2023-07-02T07:26:44;17.20;74.41
69731;SHT31;56996;48.138;11.538;2023-07-02T07:29:11;17.14;74.53
69731;SHT31;56996;48.138;11.538;2023-07-02T07:31:38;17.15;74.91
69731;SHT31;56996;48.138;11.538;2023-07-02T07:34:04;17.17;74.73
69731;SHT31;56996;48.138;11.538;2023-07-02T07:36:31;17.21;74.94
69731;SHT31;56996;48.138;11.538;2023-07-02T07:38:58;17.14;75.51
69731;SHT31;56996;48.138;11.538;2023-07-02T07:41:25;17.02;75.43
69731;SHT31;56996;48.138;11.538;2023-07-02T07:43:52;16.93;75.50
69731;SHT31;56996;48.138;11.538;2023-07-02T07:46:19;16.89;75.74
69731;SHT31;56996;48.138;11.538;2023-07-02T07:48:49;16.89;75.93
69731;SHT31;56996;48.138;11.538;2023-07-02T07:51:16;16.91;75.88
69731;SHT31;56996;48.138;11.538;2023-07-02T07:53:42;16.91;75.73
69731;SHT31;56996;48.138;11.538;2023-07-02T07:56:09;17.04;76.26
69731;SHT31;56996;48.138;11.538;2023-07-02T07:58:35;17.20;76.18
69731;SHT31;56996;48.138;11.538;2023-07-02T08:01:02;17.30;75.42
69731;SHT31;56996;48.138;11.538;2023-07-02T08:03:29;17.43;75.62
69731;SHT31;56996;48.138;11.538;2023-07-02T08:05:55;17.47;75.44
69731;SHT31;56996;48.138;11.538;2023-07-02T08:08:22;17.61;75.42
69731;SHT31;56996;48.138;11.538;2023-07-02T08:10:49;17.73;75.35
69731;SHT31;56996;48.138;11.538;2023-07-02T08:13:16;18.02;75.17
69731;SHT31;56996;48.138;11.538;2023-07-02T08:15:44;18.36;74.82
69731;SHT31;56996;48.138;11.538;2023-07-02T08:18:10;18.74;74.31
69731;SHT31;56996;48.138;11.538;2023-07-02T08:20:39;19.04;73.00
69731;SHT31;56996;48.138;11.538;2023-07-02T08:23:06;19.24;72.55
69731;SHT31;56996;48.138;11.538;2023-07-02T08:25:33;19.35;72.11
69731;SHT31;56996;48.138;11.538;2023-07-02T08:28:00;19.20;71.98
69731;SHT31;56996;48.138;11.538;2023-07-02T08:30:27;19.12;72.68
69731;SHT31;56996;48.138;11.538;2023-07-02T08:32:53;19.12;72.79
69731;SHT31;56996;48.138;11.538;2023-07-02T08:35:21;19.17;72.02
69731;SHT31;56996;48.138;11.538;2023-07-02T08:37:48;19.23;72.02
69731;SHT31;56996;48.138;11.538;2023-07-02T08:40:19;19.28;72.24
69731;SHT31;56996;48.138;11.538;2023-07-02T08:42:46;19.26;71.82
69731;SHT31;56996;48.138;11.538;2023-07-02T08:45:14;19.29;71.62
69731;SHT31;56996;48.138;11.538;2023-07-02T08:47:45;19.34;72.03
69731;SHT31;56996;48.138;11.538;2023-07-02T08:50:12;19.30;71.82
69731;SHT31;56996;48.138;11.538;2023-07-02T08:52:40;19.10;72.44
69731;SHT31;56996;48.138;11.538;2023-07-02T08:55:09;19.05;72.80
69731;SHT31;56996;48.138;11.538;2023-07-02T08:57:36;19.06;72.57
69731;SHT31;56996;48.138;11.538;2023-07-02T09:00:09;19.08;72.74
69731;SHT31;56996;48.138;11.538;2023-07-02T09:02:37;19.09;72.83
69731;SHT31;56996;48.138;11.538;2023-07-02T09:05:04;19.07;72.94
69731;SHT31;56996;48.138;11.538;2023-07-02T09:07:31;19.05;73.10
69731;SHT31;56996;48.138;11.538;2023-07-02T09:09:58;19.04;72.96
69731;SHT31;56996;48.138;11.538;2023-07-02T09:12:29;19.04;72.46
69731;SHT31;56996;48.138;11.538;2023-07-02T09:14:59;19.05;72.29
69731;SHT31;56996;48.138;11.538;2023-07-02T09:17:32;19.05;72.31
69731;SHT31;56996;48.138;11.538;2023-07-02T09:20:01;19.02;72.15
69731;SHT31;56996;48.138;11.538;2023-07-02T09:22:33;19.00;71.83
69731;SHT31;56996;48.138;11.538;2023-07-02T09:25:01;19.00;72.07
69731;SHT31;56996;48.138;11.538;2023-07-02T09:27:38;19.00;72.01
69731;SHT31;56996;48.138;11.538;2023-07-02T09:30:09;18.99;72.04
69731;SHT31;56996;48.138;11.538;2023-07-02T09:32:45;18.93;72.03
69731;SHT31;56996;48.138;11.538;2023-07-02T09:35:13;18.87;72.54
69731;SHT31;56996;48.138;11.538;2023-07-02T09:37:43;18.89;72.46
69731;SHT31;56996;48.138;11.538;2023-07-02T09:40:12;18.97;72.52
69731;SHT31;56996;48.138;11.538;2023-07-02T09:42:39;19.01;72.55
69731;SHT31;56996;48.138;11.538;2023-07-02T09:45:09;19.00;72.69
69731;SHT31;56996;48.138;11.538;2023-07-02T09:47:38;18.98;72.73
69731;SHT31;56996;48.138;11.538;2023-07-02T09:50:12;18.92;72.34
69731;SHT31;56996;48.138;11.538;2023-07-02T09:52:43;18.87;72.47
69731;SHT31;56996;48.138;11.538;2023-07-02T09:55:12;18.90;72.66
69731;SHT31;56996;48.138;11.538;2023-07-02T09:57:39;18.83;72.20
69731;SHT31;56996;48.138;11.538;2023-07-02T10:00:13;18.79;72.71
69731;SHT31;56996;48.138;11.538;2023-07-02T10:02:41;18.87;73.04
69731;SHT31;56996;48.138;11.538;2023-07-02T10:05:08;18.80;72.47
69731;SHT31;56996;48.138;11.538;2023-07-02T10:07:35;18.76;72.54
69731;SHT31;56996;48.138;11.538;2023-07-02T10:10:01;18.84;72.67
69731;SHT31;56996;48.138;11.538;2023-07-02T10:12:29;18.91;72.86
69731;SHT31;56996;48.138;11.538;2023-07-02T10:14:57;19.05;72.48
69731;SHT31;56996;48.138;11.538;2023-07-02T10:17:35;19.29;71.74
69731;SHT31;56996;48.138;11.538;2023-07-02T10:20:07;19.74;71.74
69731;SHT31;56996;48.138;11.538;2023-07-02T10:22:44;20.21;71.30
69731;SHT31;56996;48.138;11.538;2023-07-02T10:25:26;20.53;69.24
69731;SHT31;56996;48.138;11.538;2023-07-02T10:27:58;20.75;68.80
69731;SHT31;56996;48.138;11.538;2023-07-02T10:30:33;20.81;68.10
69731;SHT31;56996;48.138;11.538;2023-07-02T10:33:06;20.91;67.38
69731;SHT31;56996;48.138;11.538;2023-07-02T10:35:42;21.10;67.25
69731;SHT31;56996;48.138;11.538;2023-07-02T10:38:22;21.21;67.08
69731;SHT31;56996;48.138;11.538;2023-07-02T10:40:54;21.34;67.21
69731;SHT31;56996;48.138;11.538;2023-07-02T10:43:29;21.63;66.48
69731;SHT31;56996;48.138;11.538;2023-07-02T10:45:58;21.76;64.94
69731;SHT31;56996;48.138;11.538;2023-07-02T10:48:28;21.85;65.05
69731;SHT31;56996;48.138;11.538;2023-07-02T10:50:55;22.00;63.94
69731;SHT31;56996;48.138;11.538;2023-07-02T10:53:22;22.02;62.76
69731;SHT31;56996;48.138;11.538;2023-07-02T10:55:55;22.07;62.35
69731;SHT31;56996;48.138;11.538;2023-07-02T10:58:24;22.15;62.71
69731;SHT31;56996;48.138;11.538;2023-07-02T11:00:51;22.22;62.52
69731;SHT31;56996;48.138;11.538;2023-07-02T11:03:19;22.41;62.08
69731;SHT31;56996;48.138;11.538;2023-07-02T11:05:52;22.47;61.56
69731;SHT31;56996;48.138;11.538;2023-07-02T11:08:20;22.73;61.10
69731;SHT31;56996;48.138;11.538;2023-07-02T11:10:48;23.00;60.82
69731;SHT31;56996;48.138;11.538;2023-07-02T11:13:18;23.02;59.27
69731;SHT31;56996;48.138;11.538;2023-07-02T11:15:46;23.00;59.44
69731;SHT31;56996;48.138;11.538;2023-07-02T11:18:15;23.23;58.23
69731;SHT31;56996;48.138;11.538;2023-07-02T11:20:45;23.19;57.42
69731;SHT31;56996;48.138;11.538;2023-07-02T11:23:17;23.25;57.73
69731;SHT31;56996;48.138;11.538;2023-07-02T11:25:57;23.27;57.56
69731;SHT31;56996;48.138;11.538;2023-07-02T11:28:25;23.41;57.37
69731;SHT31;56996;48.138;11.538;2023-07-02T11:30:54;23.54;56.83
69731;SHT31;56996;48.138;11.538;2023-07-02T11:36:06;23.87;56.33
69731;SHT31;56996;48.138;11.538;2023-07-02T11:38:35;24.09;55.98
69731;SHT31;56996;48.138;11.538;2023-07-02T11:41:03;24.28;55.81
69731;SHT31;56996;48.138;11.538;2023-07-02T11:43:30;24.40;55.63
69731;SHT31;56996;48.138;11.538;2023-07-02T11:45:57;24.42;55.53
69731;SHT31;56996;48.138;11.538;2023-07-02T11:48:25;24.48;55.02
69731;SHT31;56996;48.138;11.538;2023-07-02T11:50:52;24.47;54.50
69731;SHT31;56996;48.138;11.538;2023-07-02T11:53:19;24.57;54.46
69731;SHT31;56996;48.138;11.538;2023-07-02T11:55:45;24.62;53.80
69731;SHT31;56996;48.138;11.538;2023-07-02T11:58:13;24.67;53.71
69731;SHT31;56996;48.138;11.538;2023-07-02T12:00:40;24.71;53.29
69731;SHT31;56996;48.138;11.538;2023-07-02T12:03:06;24.74;53.44
69731;SHT31;56996;48.138;11.538;2023-07-02T12:05:33;24.75;53.35
69731;SHT31;56996;48.138;11.538;2023-07-02T12:08:01;24.77;53.01
69731;SHT31;56996;48.138;11.538;2023-07-02T12:10:29;24.95;52.92
69731;SHT31;56996;48.138;11.538;2023-07-02T12:12:56;24.99;51.89
69731;SHT31;56996;48.138;11.538;2023-07-02T12:15:22;24.90;52.08
69731;SHT31;56996;48.138;11.538;2023-07-02T12:17:49;24.84;51.43
69731;SHT31;56996;48.138;11.538;2023-07-02T12:20:16;24.73;51.69
69731;SHT31;56996;48.138;11.538;2023-07-02T12:22:42;24.77;52.01
69731;SHT31;56996;48.138;11.538;2023-07-02T12:25:10;24.86;51.64
69731;SHT31;56996;48.138;11.538;2023-07-02T12:27:37;24.90;51.82
69731;SHT31;56996;48.138;11.538;2023-07-02T12:30:04;24.89;50.67
69731;SHT31;56996;48.138;11.538;2023-07-02T12:32:35;24.89;51.16
69731;SHT31;56996;48.138;11.538;2023-07-02T12:35:05;24.94;50.57
69731;SHT31;56996;48.138;11.538;2023-07-02T12:37:32;25.03;50.48
69731;SHT31;56996;48.138;11.538;2023-07-02T12:39:58;25.05;50.57
69731;SHT31;56996;48.138;11.538;2023-07-02T12:42:25;24.93;50.42
69731;SHT31;56996;48.138;11.538;2023-07-02T12:44:52;24.83;50.88
69731;SHT31;56996;48.138;11.538;2023-07-02T12:47:18;24.83;50.50
69731;SHT31;56996;48.138;11.538;2023-07-02T12:49:45;24.98;50.64
69731;SHT31;56996;48.138;11.538;2023-07-02T12:52:12;25.18;50.27
69731;SHT31;56996;48.138;11.538;2023-07-02T12:54:39;25.26;49.54
69731;SHT31;56996;48.138;11.538;2023-07-02T12:57:05;25.26;49.17
69731;SHT31;56996;48.138;11.538;2023-07-02T12:59:32;25.15;49.05
69731;SHT31;56996;48.138;11.538;2023-07-02T13:01:59;25.14;48.71
69731;SHT31;56996;48.138;11.538;2023-07-02T13:04:25;25.12;47.68
69731;SHT31;56996;48.138;11.538;2023-07-02T13:06:52;25.43;47.23
69731;SHT31;56996;48.138;11.538;2023-07-02T13:09:19;25.74;45.58
69731;SHT31;56996;48.138;11.538;2023-07-02T13:11:46;25.90;45.32
69731;SHT31;56996;48.138;11.538;2023-07-02T13:14:12;25.99;43.74
69731;SHT31;56996;48.138;11.538;2023-07-02T13:16:39;26.02;43.81
69731;SHT31;56996;48.138;11.538;2023-07-02T13:19:06;25.97;43.97
69731;SHT31;56996;48.138;11.538;2023-07-02T13:21:33;26.05;44.28
69731;SHT31;56996;48.138;11.538;2023-07-02T13:23:59;26.14;43.46
69731;SHT31;56996;48.138;11.538;2023-07-02T13:26:26;26.06;42.72
69731;SHT31;56996;48.138;11.538;2023-07-02T13:28:53;26.02;43.00
69731;SHT31;56996;48.138;11.538;2023-07-02T13:31:19;26.10;42.99
69731;SHT31;56996;48.138;11.538;2023-07-02T13:33:46;26.03;42.56
69731;SHT31;56996;48.138;11.538;2023-07-02T13:36:13;26.08;43.45
69731;SHT31;56996;48.138;11.538;2023-07-02T13:38:40;26.21;43.26
69731;SHT31;56996;48.138;11.538;2023-07-02T13:41:06;26.21;42.95
69731;SHT31;56996;48.138;11.538;2023-07-02T13:43:33;26.30;42.19
69731;SHT31;56996;48.138;11.538;2023-07-02T13:46:00;26.32;41.69
69731;SHT31;56996;48.138;11.538;2023-07-02T13:48:29;26.39;41.43
69731;SHT31;56996;48.138;11.538;2023-07-02T13:50:55;26.36;41.86
69731;SHT31;56996;48.138;11.538;2023-07-02T13:53:22;26.36;41.35
69731;SHT31;56996;48.138;11.538;2023-07-02T13:55:49;26.43;41.49
69731;SHT31;56996;48.138;11.538;2023-07-02T13:58:16;26.58;40.80
69731;SHT31;56996;48.138;11.538;2023-07-02T14:00:55;26.72;40.92
69731;SHT31;56996;48.138;11.538;2023-07-02T14:03:21;26.93;40.79
69731;SHT31;56996;48.138;11.538;2023-07-02T14:05:48;27.06;40.35
69731;SHT31;56996;48.138;11.538;2023-07-02T14:08:17;27.09;40.36
69731;SHT31;56996;48.138;11.538;2023-07-02T14:10:43;27.09;40.36
69731;SHT31;56996;48.138;11.538;2023-07-02T14:13:10;26.93;40.62
69731;SHT31;56996;48.138;11.538;2023-07-02T14:15:37;26.82;40.53
69731;SHT31;56996;48.138;11.538;2023-07-02T14:18:04;26.83;40.94
69731;SHT31;56996;48.138;11.538;2023-07-02T14:20:30;26.91;40.46
69731;SHT31;56996;48.138;11.538;2023-07-02T14:22:57;27.02;40.08
69731;SHT31;56996;48.138;11.538;2023-07-02T14:25:24;27.03;39.58
69731;SHT31;56996;48.138;11.538;2023-07-02T14:28:07;27.00;39.51
69731;SHT31;56996;48.138;11.538;2023-07-02T14:30:35;27.00;39.41
69731;SHT31;56996;48.138;11.538;2023-07-02T14:33:03;27.04;39.00
69731;SHT31;56996;48.138;11.538;2023-07-02T14:35:30;26.94;38.74
69731;SHT31;56996;48.138;11.538;2023-07-02T14:37:57;26.89;39.45
69731;SHT31;56996;48.138;11.538;2023-07-02T14:40:25;26.89;39.14
69731;SHT31;56996;48.138;11.538;2023-07-02T14:42:52;26.75;39.60
69731;SHT31;56996;48.138;11.538;2023-07-02T14:45:19;26.54;39.90
69731;SHT31;56996;48.138;11.538;2023-07-02T14:47:45;26.44;40.08
69731;SHT31;56996;48.138;11.538;2023-07-02T14:50:12;26.45;40.27
69731;SHT31;56996;48.138;11.538;2023-07-02T14:52:39;26.48;40.22
69731;SHT31;56996;48.138;11.538;2023-07-02T14:55:05;26.44;40.13
69731;SHT31;56996;48.138;11.538;2023-07-02T14:57:32;26.30;40.02
69731;SHT31;56996;48.138;11.538;2023-07-02T14:59:59;26.17;40.33
69731;SHT31;56996;48.138;11.538;2023-07-02T15:02:26;26.15;40.22
69731;SHT31;56996;48.138;11.538;2023-07-02T15:04:53;26.18;40.46
69731;SHT31;56996;48.138;11.538;2023-07-02T15:07:20;26.11;40.35
69731;SHT31;56996;48.138;11.538;2023-07-02T15:09:47;26.07;40.55
69731;SHT31;56996;48.138;11.538;2023-07-02T15:12:13;26.19;40.24
69731;SHT31;56996;48.138;11.538;2023-07-02T15:14:40;26.20;40.32
69731;SHT31;56996;48.138;11.538;2023-07-02T15:17:07;26.26;40.15
69731;SHT31;56996;48.138;11.538;2023-07-02T15:19:34;26.26;40.19
69731;SHT31;56996;48.138;11.538;2023-07-02T15:22:00;26.33;40.59